Time;durP1;ratioP1;P1;durP2;ratioP2;P2;SDS_P1;SDS_P2;PMS_P1;PMS_P2;Temp;Humidity;BMP_temperature;BMP_pressure;BME280_temperature;BME280_humidity;BME280_pressure;Samples;Min_cycle;Max_cycle;Signal;HPM_P1;HPM_P2
2022/06/10 00:00:57;;;;;;;5.63;3.00;;;12.10;99.90;;;;;;4973083;28;20114;-61
2022/06/10 00:03:25;;;;;;;8.60;3.28;;;12.10;99.90;;;;;;4972600;28;20094;-60
2022/06/10 00:05:53;;;;;;;6.68;3.30;;;12.10;99.90;;;;;;4972855;28;20471;-61
2022/06/10 00:08:23;;;;;;;7.93;3.60;;;12.00;99.90;;;;;;4973155;28;20027;-61
2022/06/10 00:10:50;;;;;;;6.80;3.42;;;12.00;99.90;;;;;;4972918;28;20034;-61
2022/06/10 00:13:18;;;;;;;5.78;3.20;;;12.00;99.90;;;;;;4972228;28;20074;-60
2022/06/10 00:15:44;;;;;;;6.00;3.50;;;;;;;;;;4972668;28;20062;-61
2022/06/10 00:18:11;;;;;;;6.85;3.10;;;11.90;99.90;;;;;;4972691;28;20062;-61
2022/06/10 00:20:37;;;;;;;6.20;3.38;;;11.80;99.90;;;;;;4972709;28;20385;-60
2022/06/10 00:23:04;;;;;;;9.15;3.45;;;11.80;99.90;;;;;;4972929;28;20561;-61
2022/06/10 00:25:30;;;;;;;6.03;3.50;;;11.80;99.90;;;;;;4972859;28;20026;-61
2022/06/10 00:27:56;;;;;;;6.85;3.30;;;11.70;99.90;;;;;;4972283;28;20384;-60
2022/06/10 00:30:25;;;;;;;7.88;4.00;;;11.70;99.90;;;;;;4972654;28;20031;-61
2022/06/10 00:32:51;;;;;;;7.00;3.40;;;11.90;99.90;;;;;;4972719;28;20034;-61
2022/06/10 00:35:17;;;;;;;5.63;3.65;;;11.80;99.90;;;;;;4972965;28;20023;-61
2022/06/10 00:37:43;;;;;;;9.30;3.53;;;11.70;99.90;;;;;;4972337;28;20425;-60
2022/06/10 00:40:33;;;;;;;8.23;3.75;;;11.80;99.90;;;;;;4972215;28;20023;-61
2022/06/10 00:42:59;;;;;;;8.27;3.60;;;11.70;99.90;;;;;;4971712;28;20078;-60
2022/06/10 00:45:59;;;;;;;5.93;3.55;;;11.60;99.90;;;;;;4972346;28;20023;-60
2022/06/10 00:48:53;;;;;;;5.75;3.35;;;11.50;99.90;;;;;;4972575;28;20472;-60
2022/06/10 00:51:19;;;;;;;;;;;11.50;99.90;;;;;;4972793;28;20027;-60
2022/06/10 00:53:49;;;;;;;8.45;3.10;;;11.40;99.90;;;;;;4972791;28;20449;-61
2022/06/10 00:56:21;;;;;;;5.70;3.30;;;11.30;99.90;;;;;;4976008;28;20030;-60
2022/06/10 00:59:01;;;;;;;7.70;3.30;;;11.40;99.90;;;;;;4975569;28;20070;-61
2022/06/10 01:01:28;;;;;;;6.53;3.35;;;11.20;99.90;;;;;;4975873;28;20035;-61
2022/06/10 01:03:54;;;;;;;5.30;3.33;;;11.20;99.90;;;;;;4975761;28;20515;-60
2022/06/10 01:06:21;;;;;;;6.82;3.50;;;11.30;99.90;;;;;;4974677;28;20084;-60
2022/06/10 01:08:49;;;;;;;7.55;3.55;;;11.30;99.90;;;;;;4975829;28;20042;-60
2022/06/10 01:11:20;;;;;;;6.15;3.60;;;11.30;99.90;;;;;;4976446;28;20033;-60
2022/06/10 01:14:22;;;;;;;5.18;3.45;;;11.20;99.90;;;;;;4975777;28;20038;-60
2022/06/10 01:17:16;;;;;;;8.27;3.53;;;11.20;99.90;;;;;;4970048;28;20078;-60
2022/06/10 01:20:08;;;;;;;5.40;3.25;;;11.10;99.90;;;;;;4972588;28;20522;-60
2022/06/10 01:22:51;;;;;;;11.85;3.58;;;11.10;99.90;;;;;;4941063;29;20043;-60
2022/06/10 01:25:41;;;;;;;8.02;3.17;;;11.20;99.90;;;;;;4939140;29;20064;-61
2022/06/10 01:28:10;;;;;;;6.07;3.50;;;11.20;99.90;;;;;;4939078;29;20127;-61
2022/06/10 01:30:56;;;;;;;9.18;3.65;;;11.00;99.90;;;;;;4939332;29;20521;-60
2022/06/10 01:33:41;;;;;;;4.90;2.90;;;10.90;99.90;;;;;;4938081;29;20122;-61
2022/06/10 01:36:33;;;;;;;5.82;3.50;;;10.90;99.90;;;;;;4936026;29;20166;-60
2022/06/10 01:39:20;;;;;;;7.72;3.67;;;10.80;99.90;;;;;;4901408;28;20102;-60
2022/06/10 01:42:35;;;;;;;7.57;3.33;;;10.80;99.90;;;;;;4916463;29;20513;-61
2022/06/10 01:45:06;;;;;;;;;;;10.80;99.90;;;;;;4883488;29;20291;-60
2022/06/10 01:47:43;;;;;;;5.15;3.28;;;10.80;99.90;;;;;;4899713;29;20479;-60
2022/06/10 01:55:50;;;;;;;6.25;3.80;;;10.70;99.90;;;;;;5033181;22;20502;-60
2022/06/10 01:58:26;;;;;;;6.97;3.17;;;10.70;99.90;;;;;;4976772;28;20050;-59
2022/06/10 02:00:57;;;;;;;6.20;3.10;;;10.70;99.90;;;;;;4990597;28;20030;-61
2022/06/10 02:04:03;;;;;;;8.02;4.00;;;10.70;99.90;;;;;;4982868;28;20019;-61
2022/06/10 02:06:38;;;;;;;6.50;3.50;;;10.70;99.90;;;;;;4988778;28;20038;-61
2022/06/10 02:09:13;;;;;;;6.07;3.60;;;10.70;99.90;;;;;;4989758;28;20387;-61
2022/06/10 02:11:43;;;;;;;8.35;3.95;;;10.60;99.90;;;;;;4989380;28;20118;-61
2022/06/10 02:14:11;;;;;;;5.40;3.28;;;10.60;99.90;;;;;;4989611;28;20058;-61
2022/06/10 02:16:43;;;;;;;6.03;3.30;;;10.60;99.90;;;;;;4992112;28;20089;-60
2022/06/10 02:19:35;;;;;;;5.18;3.63;;;10.60;99.90;;;;;;4992521;28;20494;-61
2022/06/10 02:22:18;;;;;;;5.18;3.88;;;10.60;99.90;;;;;;4991502;28;20033;-61
2022/06/10 02:25:03;;;;;;;7.03;3.60;;;10.50;99.90;;;;;;4978942;28;20394;-61
2022/06/10 02:27:34;;;;;;;7.53;4.00;;;10.40;99.90;;;;;;4989821;28;20030;-61
2022/06/10 02:30:06;;;;;;;9.48;4.43;;;10.40;99.90;;;;;;4989433;28;20038;-61
2022/06/10 02:32:34;;;;;;;7.88;4.45;;;10.40;99.90;;;;;;4998821;28;20046;-61
2022/06/10 02:35:01;;;;;;;5.55;3.70;;;10.50;99.90;;;;;;5003290;28;20037;-61
2022/06/10 02:37:58;;;;;;;7.25;3.47;;;10.40;99.90;;;;;;4978959;28;20045;-61
2022/06/10 02:40:34;;;;;;;7.20;3.63;;;10.30;99.90;;;;;;4978011;28;20498;-61
2022/06/10 02:43:27;;;;;;;5.93;3.65;;;10.40;99.90;;;;;;4990933;28;20036;-61
2022/06/10 02:46:16;;;;;;;7.07;4.05;;;10.30;99.90;;;;;;4990190;28;20030;-61
2022/06/10 02:49:07;;;;;;;8.60;3.95;;;10.20;99.90;;;;;;4979395;28;20058;-60
2022/06/10 02:51:34;;;;;;;5.63;3.58;;;10.10;99.90;;;;;;4989938;28;20534;-61
2022/06/10 02:54:03;;;;;;;6.50;3.55;;;10.20;99.90;;;;;;4988394;28;20042;-60
2022/06/10 02:56:29;;;;;;;7.72;3.60;;;10.20;99.90;;;;;;4989231;28;20043;-61
2022/06/10 03:01:53;;;;;;;6.90;3.40;;;10.10;99.90;;;;;;4990145;28;20050;-61
2022/06/10 03:04:48;;;;;;;8.02;3.60;;;10.10;99.90;;;;;;4993238;28;20049;-61
2022/06/10 03:07:39;;;;;;;5.63;3.70;;;10.00;99.90;;;;;;4992299;28;20027;-61
2022/06/10 03:10:20;;;;;;;9.32;3.83;;;10.10;99.90;;;;;;4991477;28;20010;-61
2022/06/10 03:13:04;;;;;;;5.45;3.60;;;10.00;99.90;;;;;;4978392;28;20037;-61
2022/06/10 03:15:48;;;;;;;6.13;3.58;;;10.10;99.90;;;;;;4988813;28;20475;-61
2022/06/10 03:18:21;;;;;;;7.93;3.88;;;9.90;99.90;;;;;;4987922;28;20050;-61
2022/06/10 03:21:16;;;;;;;8.13;3.88;;;9.90;99.90;;;;;;4988211;28;20038;-61
2022/06/10 03:23:50;;;;;;;7.72;4.00;;;9.90;99.90;;;;;;4987989;28;20045;-61
2022/06/10 03:26:48;;;;;;;7.22;3.50;;;9.90;99.90;;;;;;4988192;28;20091;-61
2022/06/10 03:29:19;;;;;;;8.82;3.80;;;9.80;99.90;;;;;;4988449;28;20103;-61
2022/06/10 03:32:11;;;;;;;5.90;3.35;;;9.80;99.90;;;;;;4988826;28;20026;-60
2022/06/10 03:34:42;;;;;;;5.85;3.83;;;9.80;99.90;;;;;;4977442;28;20052;-61
2022/06/10 03:37:11;;;;;;;6.38;4.35;;;9.90;99.90;;;;;;4990597;28;20057;-61
2022/06/10 03:39:39;;;;;;;13.88;10.60;;;9.90;99.90;;;;;;4988784;28;20046;-61
2022/06/10 03:42:15;;;;;;;15.38;12.32;;;9.90;99.90;;;;;;4979145;28;20484;-60
2022/06/10 03:44:42;;;;;;;23.92;21.45;;;9.80;99.90;;;;;;4983556;28;20053;-60
2022/06/10 03:47:17;;;;;;;16.55;13.75;;;9.70;99.90;;;;;;4988432;28;20031;-61
2022/06/10 03:49:50;;;;;;;24.52;20.75;;;9.90;99.90;;;;;;4992644;28;20375;-60
2022/06/10 03:52:20;;;;;;;16.73;13.75;;;9.80;99.90;;;;;;4976426;28;20030;-60
2022/06/10 03:54:46;;;;;;;15.20;12.57;;;9.80;99.90;;;;;;4977759;28;20070;-61
2022/06/10 03:57:13;;;;;;;33.10;24.50;;;9.70;99.90;;;;;;4981648;28;20069;-60
2022/06/10 03:59:39;;;;;;;16.00;13.65;;;9.60;99.90;;;;;;4981372;28;20035;-60
2022/06/10 04:02:05;;;;;;;24.95;19.30;;;9.60;99.90;;;;;;4981046;28;20387;-61
2022/06/10 04:04:31;;;;;;;23.48;16.55;;;9.50;99.90;;;;;;4978218;28;20080;-61
2022/06/10 04:06:56;;;;;;;20.55;15.18;;;9.50;99.90;;;;;;4976299;28;20094;-61
2022/06/10 04:09:22;;;;;;;38.10;32.55;;;9.60;99.90;;;;;;4981248;28;20033;-60
2022/06/10 04:11:48;;;;;;;28.05;25.13;;;9.70;99.90;;;;;;4981005;28;20113;-60
2022/06/10 04:14:14;;;;;;;16.58;14.77;;;9.70;99.90;;;;;;4980969;28;20022;-60
2022/06/10 04:16:40;;;;;;;9.13;7.13;;;9.80;99.90;;;;;;4979222;28;20503;-60
2022/06/10 04:19:05;;;;;;;7.00;5.05;;;9.60;99.90;;;;;;4976720;28;20402;-60
2022/06/10 04:21:31;;;;;;;6.50;4.78;;;9.40;99.90;;;;;;4979209;28;20034;-60
2022/06/10 04:23:57;;;;;;;9.95;4.20;;;9.50;99.90;;;;;;4980982;28;20035;-61
2022/06/10 04:26:23;;;;;;;8.00;4.43;;;9.50;99.90;;;;;;4981026;28;20648;-61
2022/06/10 04:28:48;;;;;;;9.30;6.18;;;9.50;99.90;;;;;;4980572;28;20038;-60
2022/06/10 04:31:14;;;;;;;12.80;9.02;;;9.60;99.90;;;;;;4980263;28;20132;-60
2022/06/10 04:33:40;;;;;;;14.10;8.05;;;9.60;99.90;;;;;;4982337;28;20110;-61
2022/06/10 04:36:07;;;;;;;16.92;10.45;;;9.60;99.90;;;;;;4984514;28;20034;-60
2022/06/10 04:38:32;;;;;;;9.05;7.03;;;9.50;99.90;;;;;;4984867;28;20066;-60
2022/06/10 04:40:59;;;;;;;11.77;8.05;;;9.50;99.90;;;;;;4984828;28;20030;-60
2022/06/10 04:43:24;;;;;;;12.93;5.57;;;9.50;99.90;;;;;;4981093;28;20037;-60
2022/06/10 04:45:53;;;;;;;7.20;4.30;;;9.50;99.90;;;;;;4980972;28;20034;-60
2022/06/10 04:48:19;;;;;;;8.20;4.10;;;9.50;99.90;;;;;;4991933;28;20031;-60
2022/06/10 04:50:47;;;;;;;9.70;4.22;;;9.60;99.90;;;;;;4990889;28;20401;-60
2022/06/10 04:53:13;;;;;;;21.40;19.10;;;9.60;99.90;;;;;;4991311;28;20105;-60
2022/06/10 04:55:39;;;;;;;17.88;15.80;;;9.70;99.90;;;;;;4993099;28;20073;-61
2022/06/10 04:58:06;;;;;;;16.00;12.43;;;11.10;99.90;;;;;;4993988;28;20450;-61
2022/06/10 05:00:37;;;;;;;14.13;11.38;;;12.60;99.90;;;;;;4991786;28;20403;-60
2022/06/10 05:03:04;;;;;;;17.27;13.68;;;13.00;99.90;;;;;;4990913;28;20518;-60
2022/06/10 05:05:30;;;;;;;13.57;12.18;;;12.10;99.90;;;;;;4990489;28;20513;-60
2022/06/10 05:07:56;;;;;;;8.82;7.22;;;11.10;99.90;;;;;;4995346;28;20026;-61
2022/06/10 05:10:22;;;;;;;9.63;5.68;;;10.60;99.90;;;;;;4980147;28;20076;-60
2022/06/10 05:12:49;;;;;;;11.00;4.80;;;10.40;99.90;;;;;;4991682;28;20026;-60
2022/06/10 05:15:20;;;;;;;9.15;4.47;;;10.60;99.90;;;;;;4990612;28;20034;-61
2022/06/10 05:17:50;;;;;;;8.32;4.03;;;10.50;99.90;;;;;;4990674;28;20045;-60
2022/06/10 05:20:25;;;;;;;4.38;3.20;;;10.60;99.90;;;;;;4990333;28;20038;-60
2022/06/10 05:22:51;;;;;;;9.10;3.63;;;12.70;99.90;;;;;;4991676;28;20058;-60
2022/06/10 05:25:16;;;;;;;5.47;3.58;;;12.90;99.90;;;;;;4994467;28;20493;-60
2022/06/10 05:27:42;;;;;;;8.18;3.47;;;13.50;99.90;;;;;;4991424;28;20026;-60
2022/06/10 05:30:12;;;;;;;6.47;2.80;;;13.60;99.90;;;;;;4990277;28;20487;-60
2022/06/10 05:32:38;;;;;;;7.95;3.60;;;14.10;99.90;;;;;;4990877;28;20506;-60
2022/06/10 05:35:04;;;;;;;4.20;2.40;;;16.10;99.90;;;;;;4990065;28;20027;-61
2022/06/10 05:37:30;;;;;;;3.15;2.20;;;17.50;99.90;;;;;;4993724;28;20074;-60
2022/06/10 05:39:56;;;;;;;5.00;2.08;;;18.50;99.90;;;;;;4991594;28;20050;-60
2022/06/10 05:42:22;;;;;;;5.00;2.17;;;19.40;99.90;;;;;;4990818;28;20034;-61
2022/06/10 05:44:50;;;;;;;6.07;2.10;;;19.80;99.90;;;;;;4989985;28;20587;-61
2022/06/10 05:47:21;;;;;;;5.18;2.08;;;20.30;99.90;;;;;;4992129;28;20054;-61
2022/06/10 05:49:51;;;;;;;6.95;2.03;;;21.00;99.90;;;;;;4982541;28;20446;-61
2022/06/10 05:52:20;;;;;;;6.88;3.42;;;21.80;99.90;;;;;;4991264;28;20069;-60
2022/06/10 05:54:48;;;;;;;5.53;3.20;;;23.50;99.90;;;;;;4990190;28;20046;-61
2022/06/10 05:57:14;;;;;;;4.85;2.80;;;25.10;99.90;;;;;;4988964;28;20117;-61
2022/06/10 05:59:41;;;;;;;5.28;3.10;;;26.10;99.20;;;;;;4989540;28;20042;-61
2022/06/10 06:02:09;;;;;;;5.15;2.90;;;25.50;98.60;;;;;;4989094;28;20114;-61
2022/06/10 06:04:35;;;;;;;5.10;2.65;;;25.50;98.90;;;;;;4993057;28;20035;-61
2022/06/10 06:07:01;;;;;;;6.93;2.50;;;26.40;97.50;;;;;;4991645;28;20031;-61
2022/06/10 06:09:27;;;;;;;5.75;2.20;;;27.40;95.80;;;;;;4990240;28;20037;-61
2022/06/10 06:11:56;;;;;;;5.18;2.42;;;26.80;95.60;;;;;;4989620;28;20030;-62
2022/06/10 06:14:26;;;;;;;5.25;2.42;;;26.90;95.30;;;;;;4989163;28;20041;-60
2022/06/10 06:16:55;;;;;;;5.95;2.08;;;27.10;94.90;;;;;;4989861;28;20380;-60
2022/06/10 06:19:22;;;;;;;6.20;2.17;;;27.70;94.40;;;;;;4978440;28;20130;-60
2022/06/10 06:21:48;;;;;;;6.30;2.10;;;28.40;93.90;;;;;;4990275;28;20491;-60
2022/06/10 06:24:13;;;;;;;6.13;2.20;;;28.50;92.70;;;;;;4989458;28;20080;-61
2022/06/10 06:26:39;;;;;;;4.88;1.90;;;28.30;93.90;;;;;;4988011;28;20054;-60
2022/06/10 06:29:05;;;;;;;5.82;1.90;;;29.10;92.20;;;;;;4979642;28;20027;-60
2022/06/10 06:31:31;;;;;;;4.35;1.70;;;29.40;92.70;;;;;;4992682;28;20110;-61
2022/06/10 06:33:56;;;;;;;6.25;2.15;;;29.80;93.10;;;;;;4990612;28;20534;-61
2022/06/10 06:36:24;;;;;;;4.63;2.00;;;30.10;92.90;;;;;;4989606;28;20084;-61
2022/06/10 06:38:51;;;;;;;5.28;2.00;;;30.10;90.80;;;;;;4989038;28;20410;-61
2022/06/10 06:41:18;;;;;;;6.93;2.00;;;30.70;90.30;;;;;;4989122;28;20027;-60
2022/06/10 06:43:44;;;;;;;5.55;2.08;;;31.70;90.50;;;;;;4991051;28;20467;-61
2022/06/10 06:46:15;;;;;;;6.18;1.95;;;30.90;90.00;;;;;;4991677;28;20029;-61
2022/06/10 06:48:42;;;;;;;6.07;2.03;;;31.50;90.50;;;;;;4989800;28;20026;-62
2022/06/10 06:51:09;;;;;;;6.85;2.17;;;31.00;90.00;;;;;;4988880;28;20022;-59
2022/06/10 06:53:35;;;;;;;7.55;2.58;;;30.20;91.40;;;;;;4988128;28;20030;-60
2022/06/10 06:56:02;;;;;;;5.20;2.05;;;29.60;91.40;;;;;;4988955;28;20121;-61
2022/06/10 06:58:28;;;;;;;5.78;2.00;;;29.20;92.00;;;;;;4992752;28;20049;-59
2022/06/10 07:00:54;;;;;;;6.60;2.05;;;30.30;91.70;;;;;;4989746;28;20027;-61
2022/06/10 07:03:20;;;;;;;5.43;2.00;;;31.40;89.60;;;;;;4989206;28;20314;-62
2022/06/10 07:05:47;;;;;;;6.22;2.10;;;31.10;88.90;;;;;;4986780;28;20031;-62
2022/06/10 07:08:12;;;;;;;5.57;2.10;;;29.60;90.90;;;;;;4981756;28;20030;-62
2022/06/10 07:10:38;;;;;;;5.47;2.30;;;29.30;91.70;;;;;;4992561;28;20117;-61
2022/06/10 07:13:04;;;;;;;6.78;2.30;;;30.60;91.20;;;;;;4990152;28;20026;-62
2022/06/10 07:15:30;;;;;;;7.07;2.05;;;31.20;89.70;;;;;;4990725;28;20026;-61
2022/06/10 07:17:57;;;;;;;7.72;2.10;;;32.40;87.20;;;;;;4990186;28;20101;-61
2022/06/10 07:20:34;;;;;;;6.82;2.28;;;32.10;85.90;;;;;;4992717;28;20114;-62
2022/06/10 07:23:00;;;;;;;7.45;2.08;;;30.80;88.80;;;;;;4990912;28;20096;-61
2022/06/10 07:25:28;;;;;;;5.50;1.90;;;32.10;88.40;;;;;;4991908;28;20510;-62
2022/06/10 07:27:55;;;;;;;6.43;2.03;;;30.20;89.70;;;;;;4989406;28;20384;-61
2022/06/10 07:30:23;;;;;;;6.78;1.98;;;33.20;84.40;;;;;;4980732;28;20030;-61
2022/06/10 07:32:49;;;;;;;5.55;1.73;;;34.40;83.30;;;;;;4982198;28;20118;-61
2022/06/10 07:35:18;;;;;;;6.18;2.20;;;35.30;79.20;;;;;;4981629;28;20030;-61
2022/06/10 07:37:45;;;;;;;8.05;2.50;;;34.10;80.50;;;;;;4980786;28;20038;-62
2022/06/10 07:41:56;;;;;;;7.28;2.17;;;33.60;80.00;;;;;;4976793;28;20034;-61
2022/06/10 07:43:03;;;;;;;6.20;2.00;;;33.80;79.80;;;;;;4990598;28;20034;-61
2022/06/10 07:45:29;;;;;;;6.53;1.90;;;35.60;78.20;;;;;;4980206;28;20035;-61
2022/06/10 07:47:55;;;;;;;7.95;2.30;;;35.40;76.00;;;;;;4981924;28;20045;-61
2022/06/10 07:50:23;;;;;;;7.05;2.20;;;29.50;88.20;;;;;;4981711;28;20038;-61
2022/06/10 07:52:49;;;;;;;6.15;2.13;;;28.30;89.10;;;;;;4980875;28;20026;-62
2022/06/10 07:55:19;;;;;;;10.93;2.20;;;28.10;90.50;;;;;;4976748;28;20391;-62
2022/06/10 07:57:45;;;;;;;5.78;1.95;;;30.70;85.70;;;;;;4978705;28;20113;-61
2022/06/10 08:00:12;;;;;;;7.20;1.75;;;31.60;85.30;;;;;;4980793;28;20074;-62
2022/06/10 08:02:39;;;;;;;5.38;1.98;;;32.50;83.50;;;;;;4981321;28;20027;-62
2022/06/10 08:05:07;;;;;;;6.55;2.00;;;31.10;83.80;;;;;;4981426;28;20094;-61
2022/06/10 08:07:35;;;;;;;5.25;1.85;;;34.20;79.40;;;;;;4978129;28;20030;-61
2022/06/10 08:10:00;;;;;;;5.78;1.90;;;33.60;80.00;;;;;;4976527;28;20285;-62
2022/06/10 08:12:26;;;;;;;6.18;1.98;;;33.60;78.70;;;;;;4980127;28;20387;-61
2022/06/10 08:14:52;;;;;;;6.30;2.00;;;35.00;77.90;;;;;;4981275;28;20109;-62
2022/06/10 08:17:18;;;;;;;5.97;2.00;;;36.70;76.80;;;;;;4981031;28;20034;-61
2022/06/10 08:19:44;;;;;;;4.55;1.70;;;35.40;75.30;;;;;;4979605;28;20229;-61
2022/06/10 08:24:54;;;;;;;6.10;1.90;;;34.20;77.40;;;;;;4988599;28;20041;-62
2022/06/10 08:27:20;;;;;;;5.88;2.20;;;36.00;75.20;;;;;;4981440;28;20027;-61
2022/06/10 08:29:46;;;;;;;4.03;1.88;;;38.50;71.80;;;;;;4980906;28;20027;-62
2022/06/10 08:32:11;;;;;;;6.40;2.05;;;36.90;71.60;;;;;;4981298;28;20026;-61
2022/06/10 08:34:42;;;;;;;5.10;1.90;;;37.60;71.50;;;;;;4978904;28;20021;-62
2022/06/10 08:37:08;;;;;;;5.68;2.05;;;36.20;73.20;;;;;;4976371;28;20038;-62
2022/06/10 08:39:35;;;;;;;7.78;2.00;;;36.20;72.50;;;;;;4977707;28;20043;-62
2022/06/10 08:42:33;;;;;;;6.20;1.80;;;32.80;77.10;;;;;;4980586;28;20476;-61
2022/06/10 08:45:10;;;;;;;5.15;1.75;;;30.80;80.10;;;;;;4975501;28;20031;-62
2022/06/10 08:47:44;;;;;;;5.15;1.80;;;28.70;84.40;;;;;;4980752;28;20050;-62
2022/06/10 08:50:42;;;;;;;4.90;2.13;;;28.60;85.80;;;;;;4980725;28;20483;-62
2022/06/10 08:53:44;;;;;;;4.90;1.80;;;29.90;82.70;;;;;;4972658;28;20446;-62
2022/06/10 08:56:21;;;;;;;5.78;1.95;;;30.10;84.60;;;;;;4970296;28;20384;-61
2022/06/10 08:58:55;;;;;;;5.57;1.88;;;33.90;77.30;;;;;;4979748;28;20042;-61
2022/06/10 09:01:24;;;;;;;4.30;1.85;;;34.70;75.50;;;;;;4976854;28;20033;-62
2022/06/10 09:03:55;;;;;;;5.03;1.83;;;32.90;76.70;;;;;;4986825;28;20411;-61
2022/06/10 09:06:35;;;;;;;6.00;1.80;;;32.70;78.60;;;;;;4980432;28;20027;-62
2022/06/10 09:09:04;;;;;;;3.88;1.60;;;30.60;80.70;;;;;;4980461;28;20030;-62
2022/06/10 09:11:52;;;;;;;3.60;1.80;;;32.60;77.20;;;;;;4980317;28;20077;-62
2022/06/10 09:14:23;;;;;;;4.32;2.00;;;36.50;74.30;;;;;;4980654;28;20126;-61
2022/06/10 09:17:13;;;;;;;6.43;2.05;;;37.80;69.70;;;;;;4982573;28;20109;-61
2022/06/10 09:20:02;;;;;;;5.07;1.80;;;35.40;74.10;;;;;;4979947;28;20045;-62
2022/06/10 09:22:40;;;;;;;4.43;2.00;;;35.50;72.60;;;;;;4979995;28;20061;-62
2022/06/10 09:25:29;;;;;;;4.53;1.70;;;33.50;74.60;;;;;;4991684;28;20394;-62
2022/06/10 09:27:57;;;;;;;5.22;1.90;;;33.20;74.90;;;;;;4990553;28;20451;-62
2022/06/10 09:30:37;;;;;;;4.22;1.77;;;30.70;80.10;;;;;;4983558;28;20027;-62
2022/06/10 09:33:20;;;;;;;4.78;1.83;;;35.00;75.00;;;;;;4984405;28;20039;-62
2022/06/10 09:36:09;;;;;;;4.15;1.65;;;37.20;71.60;;;;;;4983720;28;20106;-62
2022/06/10 09:38:49;;;;;;;4.82;1.70;;;38.20;69.80;;;;;;4983835;28;20054;-62
2022/06/10 09:41:44;;;;;;;4.95;1.70;;;35.20;75.20;;;;;;4983615;28;20022;-62
2022/06/10 09:44:24;;;;;;;3.67;1.70;;;34.00;76.90;;;;;;4983662;28;20022;-62
2022/06/10 09:47:05;;;;;;;3.30;1.60;;;33.50;76.90;;;;;;4983247;28;20515;-62
2022/06/10 09:50:15;;;;;;;4.40;1.75;;;31.60;80.80;;;;;;4979838;28;20069;-61
2022/06/10 09:53:19;;;;;;;4.90;1.85;;;30.90;84.10;;;;;;4957959;28;20503;-61
2022/06/10 09:56:20;;;;;;;6.82;2.20;;;28.10;84.70;;;;;;4960512;28;20046;-61
2022/06/10 09:58:59;;;;;;;3.38;1.60;;;29.70;84.00;;;;;;4878275;29;20124;-62
2022/06/10 10:01:40;;;;;;;3.67;1.70;;;29.50;84.00;;;;;;4863623;29;20041;-62
2022/06/10 10:04:27;;;;;;;3.65;1.60;;;29.30;88.40;;;;;;4878094;29;20021;-62
2022/06/10 10:07:00;;;;;;;5.28;1.70;;;29.30;85.90;;;;;;4878299;29;20080;-62
2022/06/10 10:09:36;;;;;;;5.55;1.83;;;30.00;86.00;;;;;;4877895;29;20092;-61
2022/06/10 10:12:31;;;;;;;4.90;1.65;;;29.70;85.40;;;;;;4877626;29;20035;-61
2022/06/10 10:15:25;;;;;;;3.67;1.70;;;31.10;83.60;;;;;;4877532;29;20037;-62
2022/06/10 10:17:56;;;;;;;;;;;31.70;80.50;;;;;;4878551;29;20426;-61
2022/06/10 10:20:43;;;;;;;3.65;1.48;;;28.60;85.60;;;;;;4877289;29;20011;-62
2022/06/10 10:23:17;;;;;;;3.92;1.80;;;29.00;88.30;;;;;;4877018;29;20074;-62
2022/06/10 10:25:47;;;;;;;4.78;1.65;;;29.90;86.70;;;;;;4877483;29;20116;-61
2022/06/10 10:28:20;;;;;;;4.47;1.50;;;30.60;84.20;;;;;;4886354;29;20119;-62
2022/06/10 10:31:02;;;;;;;6.25;1.75;;;31.00;85.30;;;;;;4915537;29;20660;-62
2022/06/10 10:33:28;;;;;;;4.78;1.60;;;28.90;86.10;;;;;;4974178;28;20050;-62
2022/06/10 10:35:56;;;;;;;3.30;1.60;;;28.00;89.30;;;;;;4989546;28;20034;-62
2022/06/10 10:38:37;;;;;;;4.13;1.67;;;28.40;89.10;;;;;;4988946;28;20121;-62
2022/06/10 10:41:26;;;;;;;5.10;1.85;;;27.70;90.40;;;;;;4989120;28;20117;-61
2022/06/10 10:43:57;;;;;;;4.75;1.63;;;27.40;88.30;;;;;;4982273;28;20047;-62
2022/06/10 10:46:27;;;;;;;5.32;1.60;;;27.40;87.90;;;;;;4977921;28;20148;-62
2022/06/10 10:48:57;;;;;;;3.60;1.33;;;28.20;86.80;;;;;;4990197;28;20030;-62
2022/06/10 10:51:31;;;;;;;4.03;1.42;;;29.50;85.20;;;;;;4982260;28;20031;-62
2022/06/10 10:54:12;;;;;;;4.75;1.70;;;29.10;84.50;;;;;;4981985;28;20053;-62
2022/06/10 10:56:40;;;;;;;4.93;1.70;;;29.00;85.90;;;;;;4982521;28;20082;-62
2022/06/10 10:59:41;;;;;;;4.82;1.77;;;28.70;87.40;;;;;;4982340;28;20498;-62
2022/06/10 11:02:25;;;;;;;5.32;1.60;;;28.30;90.00;;;;;;4982061;28;20463;-62
2022/06/10 11:04:51;;;;;;;5.65;1.73;;;28.60;87.10;;;;;;4981296;28;20037;-62
2022/06/10 11:07:21;;;;;;;5.40;1.75;;;28.80;87.00;;;;;;4977292;28;20113;-62
2022/06/10 11:09:52;;;;;;;4.55;1.50;;;29.10;87.20;;;;;;4979072;28;20077;-62
2022/06/10 11:12:26;;;;;;;4.78;1.73;;;28.60;88.30;;;;;;4981990;28;20034;-61
2022/06/10 11:15:03;;;;;;;4.65;1.58;;;29.20;88.90;;;;;;4982028;28;20029;-61
2022/06/10 11:17:30;;;;;;;3.95;1.42;;;27.90;90.20;;;;;;4982378;28;20026;-62
2022/06/10 11:20:19;;;;;;;3.28;1.50;;;26.50;90.80;;;;;;4982036;28;20030;-62
2022/06/10 11:22:46;;;;;;;4.57;1.63;;;26.70;90.60;;;;;;4977623;28;20035;-62
2022/06/10 11:25:15;;;;;;;5.13;1.73;;;27.20;90.80;;;;;;4991356;28;20121;-62
2022/06/10 11:27:48;;;;;;;6.40;1.85;;;27.20;89.70;;;;;;4989142;28;20026;-62
2022/06/10 11:30:16;;;;;;;;;;;27.70;87.70;;;;;;4988776;28;20122;-62
2022/06/10 11:32:48;;;;;;;5.22;1.80;;;27.20;89.40;;;;;;4988248;28;20322;-61
2022/06/10 11:35:39;;;;;;;5.55;1.70;;;27.00;90.90;;;;;;4988111;28;20392;-62
2022/06/10 11:38:04;;;;;;;4.88;1.98;;;28.00;88.60;;;;;;4991284;28;20117;-62
2022/06/10 11:40:51;;;;;;;5.82;1.65;;;27.60;88.80;;;;;;4978238;28;20176;-62
2022/06/10 11:43:41;;;;;;;3.60;1.45;;;27.40;88.40;;;;;;4977337;28;20058;-62
2022/06/10 11:46:26;;;;;;;4.13;1.67;;;27.60;91.40;;;;;;4990762;28;20030;-62
2022/06/10 11:49:09;;;;;;;4.85;1.70;;;27.10;88.90;;;;;;4989205;28;20030;-61
2022/06/10 11:51:44;;;;;;;3.97;1.40;;;27.60;88.40;;;;;;4977636;28;20026;-61
2022/06/10 11:54:26;;;;;;;3.03;1.40;;;27.70;87.30;;;;;;4981062;28;20022;-61
2022/06/10 12:00:00;;;;;;;2.90;1.30;;;27.60;90.50;;;;;;4981364;28;20610;-62
2022/06/10 12:02:51;;;;;;;7.80;1.60;;;27.70;90.70;;;;;;4981103;28;20498;-61
2022/06/10 12:05:53;;;;;;;6.15;1.70;;;27.60;91.30;;;;;;4980882;28;20181;-62
2022/06/10 12:09:09;;;;;;;4.45;1.35;;;28.10;89.80;;;;;;4908890;29;20056;-62
2022/06/10 12:12:19;;;;;;;5.78;1.90;;;27.90;90.20;;;;;;4876009;29;20165;-61
2022/06/10 12:14:48;;;;;;;3.05;1.40;;;27.40;88.60;;;;;;4875541;29;20530;-62
2022/06/10 12:17:30;;;;;;;3.28;1.40;;;27.10;91.10;;;;;;4875272;29;20053;-62
2022/06/10 12:20:16;;;;;;;4.27;1.67;;;27.40;91.10;;;;;;4875174;29;20049;-62
2022/06/10 12:22:42;;;;;;;5.22;1.60;;;27.50;90.10;;;;;;4866180;29;20329;-62
2022/06/10 12:26:01;;;;;;;4.80;1.50;;;27.60;90.00;;;;;;4875532;29;20128;-61
2022/06/10 12:28:35;;;;;;;4.93;1.38;;;27.70;88.10;;;;;;4806229;29;20030;-61
2022/06/10 12:31:29;;;;;;;4.75;1.50;;;26.70;88.50;;;;;;4820310;29;20117;-61
2022/06/10 12:34:16;;;;;;;4.97;1.52;;;26.60;89.80;;;;;;4820625;29;20090;-61
2022/06/10 12:36:47;;;;;;;3.53;1.35;;;26.50;89.50;;;;;;4820041;29;20538;-61
2022/06/10 12:39:27;;;;;;;4.35;1.63;;;27.60;88.90;;;;;;4820221;29;20084;-61
2022/06/10 12:42:11;;;;;;;3.72;1.40;;;27.80;86.10;;;;;;4820153;29;20026;-61
2022/06/10 12:44:42;;;;;;;2.95;1.30;;;28.00;90.10;;;;;;4840849;29;20460;-61
2022/06/10 12:47:12;;;;;;;2.38;1.20;;;27.60;86.20;;;;;;4913088;29;20035;-61
2022/06/10 12:49:42;;;;;;;5.70;1.73;;;26.80;86.30;;;;;;4912724;29;20429;-61
2022/06/10 12:52:07;;;;;;;6.25;1.40;;;27.20;88.50;;;;;;4916431;29;20172;-61
2022/06/10 12:54:38;;;;;;;4.75;1.20;;;27.60;87.20;;;;;;4917155;29;20052;-61
2022/06/10 12:57:22;;;;;;;3.65;1.30;;;27.50;84.70;;;;;;4916901;29;20051;-62
2022/06/10 12:59:48;;;;;;;4.88;1.50;;;27.70;86.00;;;;;;4912079;29;20142;-62
2022/06/10 13:02:48;;;;;;;5.47;1.58;;;27.60;87.30;;;;;;4954808;28;20049;-62
2022/06/10 13:05:31;;;;;;;4.88;1.67;;;28.20;85.30;;;;;;4979991;28;20570;-62
2022/06/10 13:07:58;;;;;;;3.22;1.50;;;28.10;86.70;;;;;;4991679;28;20034;-62
2022/06/10 13:10:33;;;;;;;4.10;1.48;;;28.00;85.70;;;;;;4978609;28;20402;-61
2022/06/10 13:13:11;;;;;;;3.65;1.48;;;27.90;82.10;;;;;;4992439;28;20030;-62
2022/06/10 13:15:37;;;;;;;3.67;1.17;;;27.90;80.80;;;;;;4991878;28;20556;-62
2022/06/10 13:18:21;;;;;;;2.78;1.40;;;28.00;86.60;;;;;;4990632;28;20038;-62
2022/06/10 13:20:49;;;;;;;3.13;1.40;;;28.00;83.60;;;;;;4990831;28;20541;-62
2022/06/10 13:23:19;;;;;;;4.47;1.70;;;28.40;82.30;;;;;;4990705;28;20455;-62
2022/06/10 13:26:07;;;;;;;4.13;1.73;;;28.20;83.60;;;;;;4992882;28;20101;-61
2022/06/10 13:28:38;;;;;;;5.00;1.60;;;28.10;84.50;;;;;;4975823;28;20076;-62
2022/06/10 13:31:19;;;;;;;4.15;1.40;;;28.20;84.50;;;;;;4992588;28;20073;-62
2022/06/10 13:33:59;;;;;;;5.15;1.65;;;28.40;82.00;;;;;;4980403;28;20115;-62
2022/06/10 13:36:48;;;;;;;3.15;1.50;;;27.90;83.70;;;;;;4983473;28;20041;-61
2022/06/10 13:39:29;;;;;;;3.90;1.50;;;28.10;85.70;;;;;;4983906;28;20089;-61